sensor_id;sensor_type;location;lat;lon;timestamp;temperature;humidity
12726;DHT22;6427;49.754;6.106;2022-12-29T00:02:25;10.80;99.90
12726;DHT22;6427;49.754;6.106;2022-12-29T00:04:53;10.90;99.90
12726;DHT22;6427;49.754;6.106;2022-12-29T00:07:21;11.00;99.90
12726;DHT22;6427;49.754;6.106;2022-12-29T00:09:49;10.90;99.90
12726;DHT22;6427;49.754;6.106;2022-12-29T00:12:16;10.90;99.90
12726;DHT22;6427;49.754;6.106;2022-12-29T00:14:44;10.80;99.90
12726;DHT22;6427;49.754;6.106;2022-12-29T00:17:30;10.80;99.90
12726;DHT22;6427;49.754;6.106;2022-12-29T00:19:58;10.70;99.90
12726;DHT22;6427;49.754;6.106;2022-12-29T00:22:44;10.70;99.90
12726;DHT22;6427;49.754;6.106;2022-12-29T00:25:29;10.70;99.90
12726;DHT22;6427;49.754;6.106;2022-12-29T00:28:15;10.70;99.90
12726;DHT22;6427;49.754;6.106;2022-12-29T00:31:01;10.70;99.90
12726;DHT22;6427;49.754;6.106;2022-12-29T00:33:47;10.70;99.90
12726;DHT22;6427;49.754;6.106;2022-12-29T00:36:36;10.70;99.90
12726;DHT22;6427;49.754;6.106;2022-12-29T00:39:05;10.70;99.90
12726;DHT22;6427;49.754;6.106;2022-12-29T00:41:49;10.90;99.90
12726;DHT22;6427;49.754;6.106;2022-12-29T00:44:35;10.90;99.90
12726;DHT22;6427;49.754;6.106;2022-12-29T00:47:04;10.90;99.90
12726;DHT22;6427;49.754;6.106;2022-12-29T00:49:31;10.90;99.90
12726;DHT22;6427;49.754;6.106;2022-12-29T00:52:06;10.90;99.90
12726;DHT22;6427;49.754;6.106;2022-12-29T00:54:29;10.90;99.90
12726;DHT22;6427;49.754;6.106;2022-12-29T00:56:56;10.90;99.90
12726;DHT22;6427;49.754;6.106;2022-12-29T00:59:24;10.90;99.90
12726;DHT22;6427;49.754;6.106;2022-12-29T01:01:53;10.90;99.90
12726;DHT22;6427;49.754;6.106;2022-12-29T01:04:21;10.90;99.90
12726;DHT22;6427;49.754;6.106;2022-12-29T01:06:48;10.90;99.90
12726;DHT22;6427;49.754;6.106;2022-12-29T01:09:15;10.90;99.90
12726;DHT22;6427;49.754;6.106;2022-12-29T01:12:01;10.90;99.90
12726;DHT22;6427;49.754;6.106;2022-12-29T01:14:29;10.90;99.90
12726;DHT22;6427;49.754;6.106;2022-12-29T01:16:57;10.80;99.90
12726;DHT22;6427;49.754;6.106;2022-12-29T01:19:25;11.00;99.90
12726;DHT22;6427;49.754;6.106;2022-12-29T01:21:52;11.00;99.90
12726;DHT22;6427;49.754;6.106;2022-12-29T01:24:20;11.00;99.90
12726;DHT22;6427;49.754;6.106;2022-12-29T01:26:49;11.00;99.90
12726;DHT22;6427;49.754;6.106;2022-12-29T01:29:16;11.10;99.90
12726;DHT22;6427;49.754;6.106;2022-12-29T01:31:45;11.10;99.90
12726;DHT22;6427;49.754;6.106;2022-12-29T01:34:12;11.10;99.90
12726;DHT22;6427;49.754;6.106;2022-12-29T01:36:40;11.00;99.90
12726;DHT22;6427;49.754;6.106;2022-12-29T01:39:07;11.20;99.90
12726;DHT22;6427;49.754;6.106;2022-12-29T01:41:35;11.10;99.90
12726;DHT22;6427;49.754;6.106;2022-12-29T01:44:39;11.00;99.90
12726;DHT22;6427;49.754;6.106;2022-12-29T01:46:38;11.00;99.90
12726;DHT22;6427;49.754;6.106;2022-12-29T01:51:35;10.90;99.90
12726;DHT22;6427;49.754;6.106;2022-12-29T01:54:02;10.80;99.90
12726;DHT22;6427;49.754;6.106;2022-12-29T01:56:30;10.80;99.90
12726;DHT22;6427;49.754;6.106;2022-12-29T01:59:02;10.70;99.90
12726;DHT22;6427;49.754;6.106;2022-12-29T02:01:25;10.70;99.90
12726;DHT22;6427;49.754;6.106;2022-12-29T02:03:52;10.70;99.90
12726;DHT22;6427;49.754;6.106;2022-12-29T02:06:28;10.70;99.90
12726;DHT22;6427;49.754;6.106;2022-12-29T02:08:55;10.70;99.90
12726;DHT22;6427;49.754;6.106;2022-12-29T02:11:23;10.70;99.90
12726;DHT22;6427;49.754;6.106;2022-12-29T02:13:49;10.70;99.90
12726;DHT22;6427;49.754;6.106;2022-12-29T02:21:39;10.70;99.90
12726;DHT22;6427;49.754;6.106;2022-12-29T02:24:16;10.70;99.90
12726;DHT22;6427;49.754;6.106;2022-12-29T02:26:57;10.70;99.90
12726;DHT22;6427;49.754;6.106;2022-12-29T02:29:36;10.70;99.90
12726;DHT22;6427;49.754;6.106;2022-12-29T02:32:03;10.70;99.90
12726;DHT22;6427;49.754;6.106;2022-12-29T02:34:52;10.70;99.90
12726;DHT22;6427;49.754;6.106;2022-12-29T02:37:14;10.70;99.90
12726;DHT22;6427;49.754;6.106;2022-12-29T02:40:12;10.80;99.90
12726;DHT22;6427;49.754;6.106;2022-12-29T02:45:05;10.80;99.90
12726;DHT22;6427;49.754;6.106;2022-12-29T02:47:37;10.80;99.90
12726;DHT22;6427;49.754;6.106;2022-12-29T02:50:17;11.00;99.90
12726;DHT22;6427;49.754;6.106;2022-12-29T02:52:57;11.30;99.90
12726;DHT22;6427;49.754;6.106;2022-12-29T02:55:20;11.20;99.90
12726;DHT22;6427;49.754;6.106;2022-12-29T02:57:48;11.20;99.90
12726;DHT22;6427;49.754;6.106;2022-12-29T03:00:16;11.30;99.90
12726;DHT22;6427;49.754;6.106;2022-12-29T03:13:18;11.20;99.90
12726;DHT22;6427;49.754;6.106;2022-12-29T03:19:02;11.10;99.90
12726;DHT22;6427;49.754;6.106;2022-12-29T03:21:41;11.10;99.90
12726;DHT22;6427;49.754;6.106;2022-12-29T03:24:29;11.30;99.90
12726;DHT22;6427;49.754;6.106;2022-12-29T03:26:57;11.40;99.90
12726;DHT22;6427;49.754;6.106;2022-12-29T03:29:25;11.40;99.90
12726;DHT22;6427;49.754;6.106;2022-12-29T03:31:53;11.30;99.90
12726;DHT22;6427;49.754;6.106;2022-12-29T03:34:20;11.30;99.90
12726;DHT22;6427;49.754;6.106;2022-12-29T03:36:55;11.30;99.90
12726;DHT22;6427;49.754;6.106;2022-12-29T03:39:22;11.30;99.90
12726;DHT22;6427;49.754;6.106;2022-12-29T03:41:50;11.30;99.90
12726;DHT22;6427;49.754;6.106;2022-12-29T03:44:16;11.30;99.90
12726;DHT22;6427;49.754;6.106;2022-12-29T03:46:44;11.30;99.90
12726;DHT22;6427;49.754;6.106;2022-12-29T03:49:12;11.30;99.90
12726;DHT22;6427;49.754;6.106;2022-12-29T03:51:40;11.30;99.90
12726;DHT22;6427;49.754;6.106;2022-12-29T03:54:08;11.30;99.90
12726;DHT22;6427;49.754;6.106;2022-12-29T03:56:36;11.30;99.90
12726;DHT22;6427;49.754;6.106;2022-12-29T03:59:03;11.30;99.90
12726;DHT22;6427;49.754;6.106;2022-12-29T04:01:31;11.20;99.90
12726;DHT22;6427;49.754;6.106;2022-12-29T04:03:59;11.30;99.90
12726;DHT22;6427;49.754;6.106;2022-12-29T04:06:28;11.20;99.90
12726;DHT22;6427;49.754;6.106;2022-12-29T04:08:55;11.20;99.90
12726;DHT22;6427;49.754;6.106;2022-12-29T04:11:23;11.20;99.90
12726;DHT22;6427;49.754;6.106;2022-12-29T04:13:50;11.20;99.90
12726;DHT22;6427;49.754;6.106;2022-12-29T04:16:18;11.20;99.90
12726;DHT22;6427;49.754;6.106;2022-12-29T04:18:45;11.20;99.90
12726;DHT22;6427;49.754;6.106;2022-12-29T04:21:13;11.30;99.90
12726;DHT22;6427;49.754;6.106;2022-12-29T04:23:40;11.50;99.90
12726;DHT22;6427;49.754;6.106;2022-12-29T04:26:08;11.50;99.90
12726;DHT22;6427;49.754;6.106;2022-12-29T04:28:36;11.40;99.90
12726;DHT22;6427;49.754;6.106;2022-12-29T04:31:04;11.40;99.90
12726;DHT22;6427;49.754;6.106;2022-12-29T04:33:31;11.50;99.90
12726;DHT22;6427;49.754;6.106;2022-12-29T04:35:59;11.40;99.90
12726;DHT22;6427;49.754;6.106;2022-12-29T04:38:26;11.40;99.90
12726;DHT22;6427;49.754;6.106;2022-12-29T04:40:55;11.50;99.90
12726;DHT22;6427;49.754;6.106;2022-12-29T04:43:22;11.40;99.90
12726;DHT22;6427;49.754;6.106;2022-12-29T04:45:50;11.50;99.90
12726;DHT22;6427;49.754;6.106;2022-12-29T04:48:17;11.40;99.90
12726;DHT22;6427;49.754;6.106;2022-12-29T04:50:46;11.50;99.90
12726;DHT22;6427;49.754;6.106;2022-12-29T04:53:12;11.50;99.90
12726;DHT22;6427;49.754;6.106;2022-12-29T04:55:40;11.50;99.90
12726;DHT22;6427;49.754;6.106;2022-12-29T04:58:07;11.50;99.90
12726;DHT22;6427;49.754;6.106;2022-12-29T05:00:35;11.70;99.90
12726;DHT22;6427;49.754;6.106;2022-12-29T05:03:03;11.70;99.90
12726;DHT22;6427;49.754;6.106;2022-12-29T05:05:30;11.60;99.90
12726;DHT22;6427;49.754;6.106;2022-12-29T05:07:58;11.60;99.90
12726;DHT22;6427;49.754;6.106;2022-12-29T05:10:26;11.50;99.90
12726;DHT22;6427;49.754;6.106;2022-12-29T05:12:55;11.40;99.90
12726;DHT22;6427;49.754;6.106;2022-12-29T05:15:22;11.40;99.90
12726;DHT22;6427;49.754;6.106;2022-12-29T05:17:50;11.40;99.90
12726;DHT22;6427;49.754;6.106;2022-12-29T05:20:18;11.20;99.90
12726;DHT22;6427;49.754;6.106;2022-12-29T05:22:46;11.20;99.90
12726;DHT22;6427;49.754;6.106;2022-12-29T05:25:14;11.20;99.90
12726;DHT22;6427;49.754;6.106;2022-12-29T05:27:41;11.10;99.90
12726;DHT22;6427;49.754;6.106;2022-12-29T05:30:10;11.10;99.90
12726;DHT22;6427;49.754;6.106;2022-12-29T05:32:37;11.00;99.90
12726;DHT22;6427;49.754;6.106;2022-12-29T05:35:06;11.00;99.90
12726;DHT22;6427;49.754;6.106;2022-12-29T05:37:33;11.00;99.90
12726;DHT22;6427;49.754;6.106;2022-12-29T05:40:01;11.00;99.90
12726;DHT22;6427;49.754;6.106;2022-12-29T05:42:29;11.10;99.90
12726;DHT22;6427;49.754;6.106;2022-12-29T05:44:57;11.10;99.90
12726;DHT22;6427;49.754;6.106;2022-12-29T05:47:25;11.00;99.90
12726;DHT22;6427;49.754;6.106;2022-12-29T05:49:53;11.00;99.90
12726;DHT22;6427;49.754;6.106;2022-12-29T05:52:20;11.00;99.90
12726;DHT22;6427;49.754;6.106;2022-12-29T05:54:48;10.90;99.90
12726;DHT22;6427;49.754;6.106;2022-12-29T05:57:16;10.90;99.90
12726;DHT22;6427;49.754;6.106;2022-12-29T05:59:44;10.90;99.90
12726;DHT22;6427;49.754;6.106;2022-12-29T06:02:11;10.90;99.90
12726;DHT22;6427;49.754;6.106;2022-12-29T06:04:40;10.90;99.90
12726;DHT22;6427;49.754;6.106;2022-12-29T06:07:07;10.90;99.90
12726;DHT22;6427;49.754;6.106;2022-12-29T06:09:36;10.90;99.90
12726;DHT22;6427;49.754;6.106;2022-12-29T06:12:03;10.90;99.90
12726;DHT22;6427;49.754;6.106;2022-12-29T06:14:31;10.90;99.90
12726;DHT22;6427;49.754;6.106;2022-12-29T06:16:58;10.90;99.90
12726;DHT22;6427;49.754;6.106;2022-12-29T06:19:26;10.80;99.90
12726;DHT22;6427;49.754;6.106;2022-12-29T06:21:53;10.80;99.90
12726;DHT22;6427;49.754;6.106;2022-12-29T06:24:21;11.00;99.90
12726;DHT22;6427;49.754;6.106;2022-12-29T06:26:49;11.20;99.90
12726;DHT22;6427;49.754;6.106;2022-12-29T06:29:17;11.20;99.90
12726;DHT22;6427;49.754;6.106;2022-12-29T06:31:44;11.20;99.90
12726;DHT22;6427;49.754;6.106;2022-12-29T06:34:15;11.50;99.90
12726;DHT22;6427;49.754;6.106;2022-12-29T06:36:43;11.50;99.90
12726;DHT22;6427;49.754;6.106;2022-12-29T06:39:10;11.40;99.90
12726;DHT22;6427;49.754;6.106;2022-12-29T06:41:39;11.30;99.90
12726;DHT22;6427;49.754;6.106;2022-12-29T06:44:07;11.30;99.90
12726;DHT22;6427;49.754;6.106;2022-12-29T06:46:35;11.20;99.90
12726;DHT22;6427;49.754;6.106;2022-12-29T06:49:02;11.40;99.90
12726;DHT22;6427;49.754;6.106;2022-12-29T06:51:30;11.40;99.90
12726;DHT22;6427;49.754;6.106;2022-12-29T06:53:58;11.30;99.90
12726;DHT22;6427;49.754;6.106;2022-12-29T06:56:26;11.20;99.90
12726;DHT22;6427;49.754;6.106;2022-12-29T06:58:54;11.20;99.90
12726;DHT22;6427;49.754;6.106;2022-12-29T07:01:21;11.10;99.90
12726;DHT22;6427;49.754;6.106;2022-12-29T07:03:49;11.20;99.90
12726;DHT22;6427;49.754;6.106;2022-12-29T07:06:17;11.30;99.90
12726;DHT22;6427;49.754;6.106;2022-12-29T07:08:44;11.30;99.90
12726;DHT22;6427;49.754;6.106;2022-12-29T07:11:12;11.30;99.90
12726;DHT22;6427;49.754;6.106;2022-12-29T07:13:39;11.30;99.90
12726;DHT22;6427;49.754;6.106;2022-12-29T07:16:07;11.10;99.90
12726;DHT22;6427;49.754;6.106;2022-12-29T07:18:34;11.30;99.90
12726;DHT22;6427;49.754;6.106;2022-12-29T07:21:02;11.20;99.90
12726;DHT22;6427;49.754;6.106;2022-12-29T07:23:30;11.10;99.90
12726;DHT22;6427;49.754;6.106;2022-12-29T07:26:04;11.10;99.90
12726;DHT22;6427;49.754;6.106;2022-12-29T07:28:31;11.00;99.90
12726;DHT22;6427;49.754;6.106;2022-12-29T07:30:58;11.00;99.90
12726;DHT22;6427;49.754;6.106;2022-12-29T07:33:27;10.90;99.90
12726;DHT22;6427;49.754;6.106;2022-12-29T07:35:53;11.00;99.90
12726;DHT22;6427;49.754;6.106;2022-12-29T07:38:21;11.00;99.90
12726;DHT22;6427;49.754;6.106;2022-12-29T07:40:48;11.00;99.90
12726;DHT22;6427;49.754;6.106;2022-12-29T07:43:16;10.90;99.90
12726;DHT22;6427;49.754;6.106;2022-12-29T07:45:44;10.90;99.90
12726;DHT22;6427;49.754;6.106;2022-12-29T07:48:12;11.00;99.90
12726;DHT22;6427;49.754;6.106;2022-12-29T07:50:39;10.90;99.90
12726;DHT22;6427;49.754;6.106;2022-12-29T07:53:08;11.00;99.90
12726;DHT22;6427;49.754;6.106;2022-12-29T07:55:35;11.00;99.90
12726;DHT22;6427;49.754;6.106;2022-12-29T07:58:03;11.00;99.90
12726;DHT22;6427;49.754;6.106;2022-12-29T08:00:31;11.00;99.90
12726;DHT22;6427;49.754;6.106;2022-12-29T08:02:59;11.00;99.90
12726;DHT22;6427;49.754;6.106;2022-12-29T08:05:27;11.00;99.90
12726;DHT22;6427;49.754;6.106;2022-12-29T08:07:54;11.10;99.90
12726;DHT22;6427;49.754;6.106;2022-12-29T08:10:23;11.10;99.90
12726;DHT22;6427;49.754;6.106;2022-12-29T08:12:50;11.00;99.90
12726;DHT22;6427;49.754;6.106;2022-12-29T08:15:18;11.00;99.90
12726;DHT22;6427;49.754;6.106;2022-12-29T08:17:46;11.20;99.90
12726;DHT22;6427;49.754;6.106;2022-12-29T08:20:15;11.20;99.90
12726;DHT22;6427;49.754;6.106;2022-12-29T08:22:42;11.20;99.90
12726;DHT22;6427;49.754;6.106;2022-12-29T08:25:11;11.10;99.90
12726;DHT22;6427;49.754;6.106;2022-12-29T08:27:38;11.10;99.90
12726;DHT22;6427;49.754;6.106;2022-12-29T08:30:06;11.10;99.90
12726;DHT22;6427;49.754;6.106;2022-12-29T08:32:33;11.10;99.90
12726;DHT22;6427;49.754;6.106;2022-12-29T08:35:01;11.10;99.90
12726;DHT22;6427;49.754;6.106;2022-12-29T08:37:28;11.00;99.90
12726;DHT22;6427;49.754;6.106;2022-12-29T08:39:56;11.00;99.90
12726;DHT22;6427;49.754;6.106;2022-12-29T08:42:25;11.00;99.90
12726;DHT22;6427;49.754;6.106;2022-12-29T08:44:53;11.00;99.90
12726;DHT22;6427;49.754;6.106;2022-12-29T08:47:21;11.00;99.90
12726;DHT22;6427;49.754;6.106;2022-12-29T08:49:49;11.00;99.90
12726;DHT22;6427;49.754;6.106;2022-12-29T08:52:17;11.00;99.90
12726;DHT22;6427;49.754;6.106;2022-12-29T08:54:44;11.00;99.90
12726;DHT22;6427;49.754;6.106;2022-12-29T08:57:12;10.90;99.90
12726;DHT22;6427;49.754;6.106;2022-12-29T08:59:40;11.00;99.90
12726;DHT22;6427;49.754;6.106;2022-12-29T09:02:11;11.00;99.90
12726;DHT22;6427;49.754;6.106;2022-12-29T09:04:39;11.00;99.90
12726;DHT22;6427;49.754;6.106;2022-12-29T09:07:07;11.00;99.90
12726;DHT22;6427;49.754;6.106;2022-12-29T09:09:35;11.00;99.90
12726;DHT22;6427;49.754;6.106;2022-12-29T09:12:03;11.00;99.90
12726;DHT22;6427;49.754;6.106;2022-12-29T09:14:30;11.00;99.90
12726;DHT22;6427;49.754;6.106;2022-12-29T09:16:59;11.00;99.90
12726;DHT22;6427;49.754;6.106;2022-12-29T09:19:44;11.00;99.90
12726;DHT22;6427;49.754;6.106;2022-12-29T09:22:13;11.00;99.90
12726;DHT22;6427;49.754;6.106;2022-12-29T09:24:40;11.00;99.90
12726;DHT22;6427;49.754;6.106;2022-12-29T09:27:09;11.00;99.90
12726;DHT22;6427;49.754;6.106;2022-12-29T09:29:37;11.00;99.90
12726;DHT22;6427;49.754;6.106;2022-12-29T09:32:04;11.00;99.90
12726;DHT22;6427;49.754;6.106;2022-12-29T09:34:32;11.00;99.90
12726;DHT22;6427;49.754;6.106;2022-12-29T09:37:00;11.00;99.90
12726;DHT22;6427;49.754;6.106;2022-12-29T09:39:27;11.00;99.90
12726;DHT22;6427;49.754;6.106;2022-12-29T09:44:42;11.00;99.90
12726;DHT22;6427;49.754;6.106;2022-12-29T09:47:05;10.90;99.90
12726;DHT22;6427;49.754;6.106;2022-12-29T09:49:48;11.00;99.90
12726;DHT22;6427;49.754;6.106;2022-12-29T09:52:18;11.00;99.90
12726;DHT22;6427;49.754;6.106;2022-12-29T09:55:01;11.00;99.90
12726;DHT22;6427;49.754;6.106;2022-12-29T09:57:35;11.00;99.90
12726;DHT22;6427;49.754;6.106;2022-12-29T10:00:11;11.00;99.90
12726;DHT22;6427;49.754;6.106;2022-12-29T10:02:46;11.30;99.90
12726;DHT22;6427;49.754;6.106;2022-12-29T10:05:19;11.30;99.90
12726;DHT22;6427;49.754;6.106;2022-12-29T10:11:24;11.20;99.90
12726;DHT22;6427;49.754;6.106;2022-12-29T10:13:32;11.20;99.90
12726;DHT22;6427;49.754;6.106;2022-12-29T10:16:07;11.20;99.90
12726;DHT22;6427;49.754;6.106;2022-12-29T10:18:39;11.10;99.90
12726;DHT22;6427;49.754;6.106;2022-12-29T10:23:42;11.20;99.90
12726;DHT22;6427;49.754;6.106;2022-12-29T10:26:16;11.10;99.90
12726;DHT22;6427;49.754;6.106;2022-12-29T10:28:52;11.00;99.90
12726;DHT22;6427;49.754;6.106;2022-12-29T10:31:20;11.10;99.90
12726;DHT22;6427;49.754;6.106;2022-12-29T10:33:46;11.10;99.90
12726;DHT22;6427;49.754;6.106;2022-12-29T10:36:18;11.20;99.90
12726;DHT22;6427;49.754;6.106;2022-12-29T10:38:48;11.20;99.90
12726;DHT22;6427;49.754;6.106;2022-12-29T10:43:47;11.10;99.90
12726;DHT22;6427;49.754;6.106;2022-12-29T10:46:21;11.10;99.90
12726;DHT22;6427;49.754;6.106;2022-12-29T10:48:48;11.10;99.90
12726;DHT22;6427;49.754;6.106;2022-12-29T10:51:19;11.10;99.90
12726;DHT22;6427;49.754;6.106;2022-12-29T10:53:45;11.10;99.90
12726;DHT22;6427;49.754;6.106;2022-12-29T10:59:11;11.00;99.90
12726;DHT22;6427;49.754;6.106;2022-12-29T11:01:32;11.00;99.90
12726;DHT22;6427;49.754;6.106;2022-12-29T11:06:38;11.20;99.90
12726;DHT22;6427;49.754;6.106;2022-12-29T11:09:11;11.20;99.90
12726;DHT22;6427;49.754;6.106;2022-12-29T11:11:37;11.20;99.90
12726;DHT22;6427;49.754;6.106;2022-12-29T11:14:12;11.20;99.90
12726;DHT22;6427;49.754;6.106;2022-12-29T11:16:38;11.20;99.90
12726;DHT22;6427;49.754;6.106;2022-12-29T11:19:10;11.40;99.90
12726;DHT22;6427;49.754;6.106;2022-12-29T11:21:34;11.40;99.90
12726;DHT22;6427;49.754;6.106;2022-12-29T11:24:02;11.40;99.90
12726;DHT22;6427;49.754;6.106;2022-12-29T11:26:30;11.40;99.90
12726;DHT22;6427;49.754;6.106;2022-12-29T11:29:25;11.40;99.90
12726;DHT22;6427;49.754;6.106;2022-12-29T11:31:52;11.60;99.90
12726;DHT22;6427;49.754;6.106;2022-12-29T11:34:23;11.60;99.90
12726;DHT22;6427;49.754;6.106;2022-12-29T11:36:49;11.60;99.90
12726;DHT22;6427;49.754;6.106;2022-12-29T11:39:28;11.50;99.90
12726;DHT22;6427;49.754;6.106;2022-12-29T11:41:53;11.60;99.90
12726;DHT22;6427;49.754;6.106;2022-12-29T11:44:21;11.70;99.90
12726;DHT22;6427;49.754;6.106;2022-12-29T11:46:49;11.70;99.90
12726;DHT22;6427;49.754;6.106;2022-12-29T11:49:22;11.60;99.90
12726;DHT22;6427;49.754;6.106;2022-12-29T11:51:47;11.70;99.90
12726;DHT22;6427;49.754;6.106;2022-12-29T11:54:27;11.80;99.90
12726;DHT22;6427;49.754;6.106;2022-12-29T11:56:54;11.70;99.90
12726;DHT22;6427;49.754;6.106;2022-12-29T12:01:56;11.80;99.90
12726;DHT22;6427;49.754;6.106;2022-12-29T12:04:24;11.80;99.90
12726;DHT22;6427;49.754;6.106;2022-12-29T12:06:59;11.80;99.90
12726;DHT22;6427;49.754;6.106;2022-12-29T12:09:37;11.70;99.90
12726;DHT22;6427;49.754;6.106;2022-12-29T12:12:00;11.70;99.90
12726;DHT22;6427;49.754;6.106;2022-12-29T12:14:36;11.90;99.90
12726;DHT22;6427;49.754;6.106;2022-12-29T12:17:12;11.90;99.90
12726;DHT22;6427;49.754;6.106;2022-12-29T12:22:38;11.80;99.90
12726;DHT22;6427;49.754;6.106;2022-12-29T12:25:17;12.00;99.90
12726;DHT22;6427;49.754;6.106;2022-12-29T12:27:57;11.90;99.90
12726;DHT22;6427;49.754;6.106;2022-12-29T12:30:25;11.90;99.90
12726;DHT22;6427;49.754;6.106;2022-12-29T12:32:56;11.80;99.90
12726;DHT22;6427;49.754;6.106;2022-12-29T12:35:42;11.80;99.90
12726;DHT22;6427;49.754;6.106;2022-12-29T12:41:41;11.80;99.90
12726;DHT22;6427;49.754;6.106;2022-12-29T12:55:02;12.60;99.90
12726;DHT22;6427;49.754;6.106;2022-12-29T12:57:37;12.50;99.90
12726;DHT22;6427;49.754;6.106;2022-12-29T13:00:04;12.40;99.90
12726;DHT22;6427;49.754;6.106;2022-12-29T13:02:43;12.10;99.90
12726;DHT22;6427;49.754;6.106;2022-12-29T13:10:50;12.10;99.90
12726;DHT22;6427;49.754;6.106;2022-12-29T13:21:34;11.70;99.90
12726;DHT22;6427;49.754;6.106;2022-12-29T13:24:15;11.90;99.90
12726;DHT22;6427;49.754;6.106;2022-12-29T13:26:42;11.80;99.90
12726;DHT22;6427;49.754;6.106;2022-12-29T13:30:12;12.10;99.90
12726;DHT22;6427;49.754;6.106;2022-12-29T13:35:26;11.80;99.90
12726;DHT22;6427;49.754;6.106;2022-12-29T13:40:15;11.70;99.90
12726;DHT22;6427;49.754;6.106;2022-12-29T13:42:41;11.70;99.90
12726;DHT22;6427;49.754;6.106;2022-12-29T13:45:17;11.70;99.90
12726;DHT22;6427;49.754;6.106;2022-12-29T13:47:54;11.70;99.90
12726;DHT22;6427;49.754;6.106;2022-12-29T13:50:21;11.70;99.90
12726;DHT22;6427;49.754;6.106;2022-12-29T13:55:37;11.80;99.90
12726;DHT22;6427;49.754;6.106;2022-12-29T13:58:20;11.60;99.90
12726;DHT22;6427;49.754;6.106;2022-12-29T14:00:50;11.70;99.90
12726;DHT22;6427;49.754;6.106;2022-12-29T14:06:47;11.60;99.90
12726;DHT22;6427;49.754;6.106;2022-12-29T14:08:46;11.40;99.90
12726;DHT22;6427;49.754;6.106;2022-12-29T14:11:16;11.30;99.90
12726;DHT22;6427;49.754;6.106;2022-12-29T14:13:44;11.30;99.90
12726;DHT22;6427;49.754;6.106;2022-12-29T14:16:22;11.50;99.90
12726;DHT22;6427;49.754;6.106;2022-12-29T14:18:42;11.50;99.90
12726;DHT22;6427;49.754;6.106;2022-12-29T14:23:44;11.30;99.90
12726;DHT22;6427;49.754;6.106;2022-12-29T14:28:47;11.30;99.90
12726;DHT22;6427;49.754;6.106;2022-12-29T14:34:29;11.60;99.90
12726;DHT22;6427;49.754;6.106;2022-12-29T14:36:20;11.50;99.90
12726;DHT22;6427;49.754;6.106;2022-12-29T14:38:47;11.40;99.90
12726;DHT22;6427;49.754;6.106;2022-12-29T14:41:26;11.20;99.90
12726;DHT22;6427;49.754;6.106;2022-12-29T14:43:58;11.20;99.90
12726;DHT22;6427;49.754;6.106;2022-12-29T14:46:24;11.10;99.90
12726;DHT22;6427;49.754;6.106;2022-12-29T14:48:58;11.20;99.90
12726;DHT22;6427;49.754;6.106;2022-12-29T14:51:30;11.10;99.90
12726;DHT22;6427;49.754;6.106;2022-12-29T14:53:57;11.00;99.90
12726;DHT22;6427;49.754;6.106;2022-12-29T14:56:26;11.00;99.90
12726;DHT22;6427;49.754;6.106;2022-12-29T14:59:02;11.00;99.90
12726;DHT22;6427;49.754;6.106;2022-12-29T15:04:20;10.80;99.90
12726;DHT22;6427;49.754;6.106;2022-12-29T15:06:31;10.70;99.90
12726;DHT22;6427;49.754;6.106;2022-12-29T15:09:06;10.60;99.90
12726;DHT22;6427;49.754;6.106;2022-12-29T15:14:32;10.60;99.90
12726;DHT22;6427;49.754;6.106;2022-12-29T15:16:59;10.50;99.90
12726;DHT22;6427;49.754;6.106;2022-12-29T15:19:27;10.70;99.90
12726;DHT22;6427;49.754;6.106;2022-12-29T15:21:54;10.60;99.90
12726;DHT22;6427;49.754;6.106;2022-12-29T15:24:23;10.60;99.90
12726;DHT22;6427;49.754;6.106;2022-12-29T15:26:52;10.50;99.90
12726;DHT22;6427;49.754;6.106;2022-12-29T15:29:38;10.50;99.90
12726;DHT22;6427;49.754;6.106;2022-12-29T15:32:24;10.30;99.90
12726;DHT22;6427;49.754;6.106;2022-12-29T15:34:52;10.30;99.90
12726;DHT22;6427;49.754;6.106;2022-12-29T15:37:23;10.20;99.90
12726;DHT22;6427;49.754;6.106;2022-12-29T15:39:46;10.40;99.90
12726;DHT22;6427;49.754;6.106;2022-12-29T15:45:07;10.40;99.90
12726;DHT22;6427;49.754;6.106;2022-12-29T15:47:33;10.30;99.90
12726;DHT22;6427;49.754;6.106;2022-12-29T15:50:03;10.10;99.90
12726;DHT22;6427;49.754;6.106;2022-12-29T15:52:30;10.10;99.90
12726;DHT22;6427;49.754;6.106;2022-12-29T15:54:58;10.10;99.90
12726;DHT22;6427;49.754;6.106;2022-12-29T15:57:29;10.00;99.90
12726;DHT22;6427;49.754;6.106;2022-12-29T15:59:55;10.00;99.90
12726;DHT22;6427;49.754;6.106;2022-12-29T16:02:24;9.90;99.90
12726;DHT22;6427;49.754;6.106;2022-12-29T16:04:51;9.90;99.90
12726;DHT22;6427;49.754;6.106;2022-12-29T16:07:32;9.90;99.90
12726;DHT22;6427;49.754;6.106;2022-12-29T16:09:53;9.80;99.90
12726;DHT22;6427;49.754;6.106;2022-12-29T16:12:18;9.80;99.90
12726;DHT22;6427;49.754;6.106;2022-12-29T16:14:55;9.80;99.90
12726;DHT22;6427;49.754;6.106;2022-12-29T16:17:20;9.70;99.90
12726;DHT22;6427;49.754;6.106;2022-12-29T16:19:50;9.70;99.90
12726;DHT22;6427;49.754;6.106;2022-12-29T16:25:16;9.70;99.90
12726;DHT22;6427;49.754;6.106;2022-12-29T16:27:42;9.60;99.90
12726;DHT22;6427;49.754;6.106;2022-12-29T16:30:26;9.60;99.90
12726;DHT22;6427;49.754;6.106;2022-12-29T16:32:53;9.80;99.90
12726;DHT22;6427;49.754;6.106;2022-12-29T16:35:26;9.80;99.90
12726;DHT22;6427;49.754;6.106;2022-12-29T16:38:16;9.80;99.90
12726;DHT22;6427;49.754;6.106;2022-12-29T16:43:21;9.60;99.90
12726;DHT22;6427;49.754;6.106;2022-12-29T16:50:44;9.70;99.90
12726;DHT22;6427;49.754;6.106;2022-12-29T16:53:32;9.70;99.90
12726;DHT22;6427;49.754;6.106;2022-12-29T16:55:48;9.70;99.90
12726;DHT22;6427;49.754;6.106;2022-12-29T16:58:18;9.80;99.90
12726;DHT22;6427;49.754;6.106;2022-12-29T17:00:47;9.80;99.90
12726;DHT22;6427;49.754;6.106;2022-12-29T17:03:15;9.70;99.90
12726;DHT22;6427;49.754;6.106;2022-12-29T17:05:42;9.70;99.90
12726;DHT22;6427;49.754;6.106;2022-12-29T17:08:19;9.90;99.90
12726;DHT22;6427;49.754;6.106;2022-12-29T17:10:44;9.80;99.90
12726;DHT22;6427;49.754;6.106;2022-12-29T17:13:29;10.00;99.90
12726;DHT22;6427;49.754;6.106;2022-12-29T17:15:57;10.20;99.90
12726;DHT22;6427;49.754;6.106;2022-12-29T17:18:24;10.40;99.90
12726;DHT22;6427;49.754;6.106;2022-12-29T17:20:52;10.20;99.90
12726;DHT22;6427;49.754;6.106;2022-12-29T17:23:20;9.90;99.90
12726;DHT22;6427;49.754;6.106;2022-12-29T17:25:47;9.80;99.90
12726;DHT22;6427;49.754;6.106;2022-12-29T17:28:22;9.60;99.90
12726;DHT22;6427;49.754;6.106;2022-12-29T17:30:49;9.60;99.90
12726;DHT22;6427;49.754;6.106;2022-12-29T17:33:17;9.60;99.90
12726;DHT22;6427;49.754;6.106;2022-12-29T17:35:44;9.70;99.90
12726;DHT22;6427;49.754;6.106;2022-12-29T17:38:22;9.70;99.90
12726;DHT22;6427;49.754;6.106;2022-12-29T17:40:49;9.60;99.90
12726;DHT22;6427;49.754;6.106;2022-12-29T17:43:16;9.60;99.90
12726;DHT22;6427;49.754;6.106;2022-12-29T17:45:44;9.50;99.90
12726;DHT22;6427;49.754;6.106;2022-12-29T17:48:15;9.50;99.90
12726;DHT22;6427;49.754;6.106;2022-12-29T17:50:40;9.40;99.90
12726;DHT22;6427;49.754;6.106;2022-12-29T17:53:29;9.40;99.90
12726;DHT22;6427;49.754;6.106;2022-12-29T17:55:35;9.40;99.90
12726;DHT22;6427;49.754;6.106;2022-12-29T18:00:45;9.20;99.90